Annandale, New Jersey
Current Conditions -  °F | °C
As of 1:53 PM on Thursday 30 Oct 2014 (Local Time) from KSMQ Reporting Station
Few Clouds Few Clouds  
Wind Chill: 13°   Ceiling: Unl
Heat Index: 13°   Visibility: 10mi
Dew Point:   Wind: 8mph
Humidity: 45%   Direction: 330°NNW
Pressure: 29.97"   Gusts: NA
Location:  40.65°N, 74.89°W
Report Text: KSMQ 301753Z AUTO 33007KT 10SM FEW048 13/02 A2997 RMK AO2 SLP151 T01330017 10144 20050 58010
Loading
Personal Weather Stations






























Interactive Weather Map
Tropical Storm Tracking
New forecast layout! Learn more

10-Day Weather Forecast

Advertisements
Track Severe Weather on mobile